createdAt,value
2022-08-07T00:00:40.180Z,19.20
2022-08-07T00:03:09.086Z,19.20
2022-08-07T00:05:38.887Z,19.10
2022-08-07T00:08:08.047Z,19.10
2022-08-07T00:10:36.277Z,19.10
2022-08-07T00:13:25.513Z,19.10
2022-08-07T00:15:55.112Z,19.10
2022-08-07T00:18:25.086Z,19.10
2022-08-07T00:20:57.394Z,19.10
2022-08-07T00:23:30.206Z,19.00
2022-08-07T00:26:02.782Z,19.00
2022-08-07T00:28:35.713Z,19.00
2022-08-07T00:31:16.658Z,18.90
2022-08-07T00:33:47.472Z,18.90
2022-08-07T00:36:17.219Z,18.90
2022-08-07T00:38:45.178Z,18.90
2022-08-07T00:41:14.644Z,18.80
2022-08-07T00:44:00.854Z,18.90
2022-08-07T00:46:32.912Z,18.80
2022-08-07T00:49:03.089Z,18.80
2022-08-07T00:51:57.696Z,18.80
2022-08-07T00:54:21.289Z,18.80
2022-08-07T00:56:50.956Z,18.70
2022-08-07T00:59:20.088Z,18.70
2022-08-07T01:01:50.630Z,18.70
2022-08-07T01:04:26.095Z,18.60
2022-08-07T01:06:59.915Z,18.60
2022-08-07T01:10:05.260Z,18.60
2022-08-07T01:12:29.914Z,18.60
2022-08-07T01:15:01.553Z,18.60
2022-08-07T01:17:33.352Z,18.60
2022-08-07T01:20:05.778Z,18.50
2022-08-07T01:22:36.698Z,18.50
2022-08-07T01:25:53.998Z,18.50
2022-08-07T01:27:53.555Z,18.40
2022-08-07T01:30:27.119Z,18.40
2022-08-07T01:32:55.398Z,18.40
2022-08-07T01:35:24.325Z,18.40
2022-08-07T01:37:54.276Z,18.40
2022-08-07T01:40:24.079Z,18.40
2022-08-07T01:42:58.827Z,18.30
2022-08-07T01:45:36.408Z,18.40
2022-08-07T01:48:21.278Z,18.40
2022-08-07T01:50:59.683Z,18.40
2022-08-07T01:54:09.242Z,18.30
2022-08-07T01:56:49.160Z,18.30
2022-08-07T01:59:23.549Z,18.30
2022-08-07T02:02:06.189Z,18.30
2022-08-07T02:04:56.411Z,18.30
2022-08-07T02:07:35.891Z,18.30
2022-08-07T02:10:16.174Z,18.30
2022-08-07T02:12:50.310Z,18.30
2022-08-07T02:15:23.187Z,18.30
2022-08-07T02:17:56.533Z,18.20
2022-08-07T02:20:25.506Z,18.30
2022-08-07T02:22:57.443Z,18.30
2022-08-07T02:26:10.689Z,18.30
2022-08-07T02:28:24.568Z,18.20
2022-08-07T02:30:54.715Z,18.20
2022-08-07T02:33:42.310Z,18.20
2022-08-07T02:36:29.365Z,18.20
2022-08-07T02:39:16.747Z,18.20
2022-08-07T02:41:54.164Z,18.20
2022-08-07T02:44:27.730Z,18.20
2022-08-07T02:47:04.168Z,18.10
2022-08-07T02:49:57.726Z,18.10
2022-08-07T02:52:31.179Z,18.10
2022-08-07T02:55:03.689Z,18.10
2022-08-07T02:57:37.254Z,18.10
2022-08-07T03:00:11.152Z,18.00
2022-08-07T03:02:54.830Z,18.00
2022-08-07T03:09:11.240Z,18.00
2022-08-07T03:11:52.544Z,17.90
2022-08-07T03:14:28.259Z,17.90
2022-08-07T03:16:57.227Z,17.90
2022-08-07T03:19:28.947Z,17.80
2022-08-07T03:22:06.770Z,17.80
2022-08-07T03:24:36.755Z,17.80
2022-08-07T03:27:09.111Z,17.80
2022-08-07T03:29:46.085Z,17.80
2022-08-07T03:32:26.886Z,17.80
2022-08-07T03:35:17.080Z,17.80
2022-08-07T03:37:54.995Z,17.70
2022-08-07T03:40:31.132Z,17.70
2022-08-07T03:43:04.911Z,17.70
2022-08-07T03:45:47.653Z,17.70
2022-08-07T03:48:16.135Z,17.60
2022-08-07T03:50:56.101Z,17.60
2022-08-07T03:53:49.984Z,17.60
2022-08-07T03:56:19.223Z,17.50
2022-08-07T03:59:08.260Z,17.50
2022-08-07T04:01:43.121Z,17.50
2022-08-07T04:04:17.233Z,17.50
2022-08-07T04:06:46.061Z,17.40
2022-08-07T04:09:23.335Z,17.40
2022-08-07T04:12:15.691Z,17.40
2022-08-07T04:14:46.316Z,17.40
2022-08-07T04:17:21.051Z,17.30
2022-08-07T04:19:51.872Z,17.40
2022-08-07T04:22:22.951Z,17.30
2022-08-07T04:24:51.837Z,17.40
2022-08-07T04:27:25.835Z,17.30
2022-08-07T04:29:58.408Z,17.30
2022-08-07T04:32:34.437Z,17.30
2022-08-07T04:35:05.682Z,17.30
2022-08-07T04:37:52.792Z,17.30
2022-08-07T04:40:29.535Z,17.30
2022-08-07T04:43:01.365Z,17.30
2022-08-07T04:45:57.316Z,17.30
2022-08-07T04:48:38.660Z,17.30
2022-08-07T04:51:10.684Z,17.30
2022-08-07T04:54:05.842Z,17.30
2022-08-07T04:58:24.504Z,17.30
2022-08-07T05:00:11.024Z,17.30
2022-08-07T05:02:28.166Z,17.30
2022-08-07T05:05:11.295Z,17.40
2022-08-07T05:07:57.991Z,17.40
2022-08-07T05:10:32.390Z,17.40
2022-08-07T05:14:45.586Z,17.40
2022-08-07T05:15:53.741Z,17.40
2022-08-07T05:18:26.403Z,17.30
2022-08-07T05:21:04.024Z,17.30
2022-08-07T05:23:39.652Z,17.30
2022-08-07T05:26:18.813Z,17.30
2022-08-07T05:28:55.679Z,17.30
2022-08-07T05:31:34.589Z,17.30
2022-08-07T05:34:05.897Z,17.30
2022-08-07T05:36:43.763Z,17.40
2022-08-07T05:40:13.705Z,17.40
2022-08-07T05:42:12.499Z,17.40
2022-08-07T05:44:52.889Z,17.50
2022-08-07T05:47:38.520Z,17.50
2022-08-07T05:50:18.809Z,17.50
2022-08-07T05:52:48.108Z,17.50
2022-08-07T05:55:16.147Z,17.50
2022-08-07T05:57:44.945Z,17.60
2022-08-07T06:00:16.403Z,17.60
2022-08-07T06:02:48.804Z,17.60
2022-08-07T06:05:18.202Z,17.60
2022-08-07T06:08:29.705Z,17.70
2022-08-07T06:10:38.468Z,17.70
2022-08-07T06:13:07.054Z,17.70
2022-08-07T06:15:42.973Z,17.80
2022-08-07T06:18:14.003Z,17.80
2022-08-07T06:20:50.816Z,17.80
2022-08-07T06:24:37.509Z,17.80
2022-08-07T06:26:21.255Z,17.90
2022-08-07T06:28:50.405Z,17.90
2022-08-07T06:31:21.203Z,17.90
2022-08-07T06:33:52.387Z,18.00
2022-08-07T06:36:35.397Z,18.10
2022-08-07T06:40:16.632Z,18.10
2022-08-07T06:42:03.073Z,18.20
2022-08-07T06:44:36.584Z,18.20
2022-08-07T06:47:12.656Z,18.30
2022-08-07T06:49:51.769Z,18.30
2022-08-07T06:52:31.971Z,18.40
2022-08-07T06:55:32.587Z,18.40
2022-08-07T06:57:59.596Z,18.40
2022-08-07T07:00:29.316Z,18.40
2022-08-07T07:03:01.180Z,18.50
2022-08-07T07:06:03.307Z,18.50
2022-08-07T07:08:28.975Z,18.50
2022-08-07T07:10:58.963Z,18.60
2022-08-07T07:13:55.424Z,18.70
2022-08-07T07:16:27.557Z,18.70
2022-08-07T07:19:11.210Z,18.70
2022-08-07T07:22:05.409Z,18.70
2022-08-07T07:24:43.197Z,18.70
2022-08-07T07:27:35.719Z,18.80
2022-08-07T07:30:38.129Z,18.80
2022-08-07T07:33:08.806Z,18.90
2022-08-07T07:35:44.096Z,19.00
2022-08-07T07:38:31.607Z,19.00
2022-08-07T07:41:09.170Z,19.10
2022-08-07T07:44:14.567Z,19.20
2022-08-07T07:46:40.571Z,19.30
2022-08-07T07:50:35.668Z,19.30
2022-08-07T07:52:13.717Z,19.40
2022-08-07T07:54:51.003Z,19.50
2022-08-07T07:57:29.061Z,19.60
2022-08-07T08:00:21.122Z,19.60
2022-08-07T08:03:06.119Z,19.70
2022-08-07T08:05:42.868Z,19.80
2022-08-07T08:08:35.059Z,19.90
2022-08-07T08:11:08.056Z,20.00
2022-08-07T08:13:53.100Z,20.10
2022-08-07T08:16:29.861Z,20.10
2022-08-07T08:19:00.440Z,20.20
2022-08-07T08:22:03.723Z,20.30
2022-08-07T08:25:04.795Z,20.30
2022-08-07T08:27:56.014Z,20.40
2022-08-07T08:30:26.874Z,20.50
2022-08-07T08:33:00.070Z,20.50
2022-08-07T08:35:39.480Z,20.60
2022-08-07T08:38:17.821Z,20.60
2022-08-07T08:40:53.295Z,20.70
2022-08-07T08:43:42.359Z,20.80
2022-08-07T08:46:17.878Z,20.90
2022-08-07T08:49:05.782Z,21.00
2022-08-07T08:52:12.580Z,21.10
2022-08-07T08:54:31.655Z,21.20
2022-08-07T08:57:06.132Z,21.30
2022-08-07T08:59:48.161Z,21.30
2022-08-07T09:02:34.740Z,21.30
2022-08-07T09:05:24.925Z,21.30
2022-08-07T09:08:12.288Z,21.40
2022-08-07T09:10:49.738Z,21.60
2022-08-07T09:13:37.947Z,21.70
2022-08-07T09:16:23.930Z,21.80
2022-08-07T09:19:51.821Z,21.80
2022-08-07T09:24:28.267Z,22.00
2022-08-07T09:25:17.476Z,22.00
2022-08-07T09:28:00.217Z,22.10
2022-08-07T09:30:42.465Z,22.20
2022-08-07T09:33:52.552Z,22.30
2022-08-07T09:36:27.027Z,22.30
2022-08-07T09:39:27.298Z,22.50
2022-08-07T09:42:09.272Z,22.60
2022-08-07T09:47:51.886Z,22.60
2022-08-07T09:48:00.102Z,22.70
2022-08-07T09:50:39.953Z,22.80
2022-08-07T09:53:12.650Z,22.90
2022-08-07T09:56:04.659Z,23.00
2022-08-07T09:58:56.706Z,23.10
2022-08-07T10:01:51.740Z,23.20
2022-08-07T10:04:52.928Z,23.30
2022-08-07T10:07:53.119Z,23.40
2022-08-07T10:11:00.131Z,23.40
2022-08-07T10:14:01.277Z,23.60
2022-08-07T10:16:52.519Z,23.70
2022-08-07T10:19:30.282Z,23.80
2022-08-07T10:22:15.741Z,23.90
2022-08-07T10:24:57.343Z,24.00
2022-08-07T10:27:46.829Z,24.00
2022-08-07T10:30:20.679Z,24.10
2022-08-07T10:34:05.070Z,24.20
2022-08-07T10:36:29.266Z,24.30
2022-08-07T10:39:04.426Z,24.40
2022-08-07T10:41:51.537Z,24.50
2022-08-07T10:44:37.654Z,24.50
2022-08-07T10:47:27.070Z,24.50
2022-08-07T10:50:15.691Z,24.70
2022-08-07T10:52:54.093Z,24.80
2022-08-07T10:55:38.174Z,24.90
2022-08-07T10:58:36.703Z,25.10
2022-08-07T11:01:23.690Z,25.10
2022-08-07T11:04:16.542Z,25.10
2022-08-07T11:06:59.268Z,25.10
2022-08-07T11:10:07.444Z,25.20
2022-08-07T11:12:31.770Z,25.20
2022-08-07T11:15:14.647Z,25.30
2022-08-07T11:17:50.173Z,25.30
2022-08-07T11:20:27.447Z,25.30
2022-08-07T11:23:03.970Z,25.30
2022-08-07T11:25:47.880Z,25.40
2022-08-07T11:28:20.136Z,25.50
2022-08-07T11:30:56.114Z,25.60
2022-08-07T11:33:58.663Z,25.60
2022-08-07T11:36:40.306Z,25.70
2022-08-07T11:39:19.829Z,25.80
2022-08-07T11:42:02.929Z,25.80
2022-08-07T11:44:52.405Z,25.80
2022-08-07T11:47:59.176Z,26.00
2022-08-07T11:50:44.243Z,26.20
2022-08-07T11:53:35.582Z,26.30
2022-08-07T11:56:26.585Z,26.30
2022-08-07T12:00:08.362Z,26.50
2022-08-07T12:02:03.680Z,26.50
2022-08-07T12:05:02.298Z,26.60
2022-08-07T12:07:39.150Z,26.70
2022-08-07T12:10:18.701Z,26.80
2022-08-07T12:12:53.323Z,26.90
2022-08-07T12:15:46.247Z,27.00
2022-08-07T12:18:22.028Z,27.00
2022-08-07T12:21:06.738Z,27.00
2022-08-07T12:24:06.652Z,27.10
2022-08-07T12:26:46.703Z,27.10
2022-08-07T12:29:38.203Z,27.30
2022-08-07T12:32:15.319Z,27.40
2022-08-07T12:34:49.379Z,27.40
2022-08-07T12:37:28.156Z,27.40
2022-08-07T12:40:46.300Z,27.40
2022-08-07T12:44:02.762Z,27.40
2022-08-07T12:46:15.824Z,27.60
2022-08-07T12:49:09.750Z,27.60
2022-08-07T12:52:12.371Z,27.60
2022-08-07T12:54:54.240Z,27.60
2022-08-07T12:57:26.607Z,27.70
2022-08-07T13:00:20.969Z,27.80
2022-08-07T13:03:27.458Z,28.00
2022-08-07T13:06:27.822Z,28.00
2022-08-07T13:09:12.651Z,28.10
2022-08-07T13:12:09.966Z,28.10
2022-08-07T13:14:57.672Z,27.80
2022-08-07T13:17:40.846Z,27.80
2022-08-07T13:20:17.357Z,28.00
2022-08-07T13:22:53.340Z,27.90
2022-08-07T13:25:30.706Z,28.00
2022-08-07T13:28:11.370Z,28.00
2022-08-07T13:30:52.204Z,28.00
2022-08-07T13:34:29.916Z,28.10
2022-08-07T13:36:25.882Z,28.20
2022-08-07T13:39:01.962Z,28.20
2022-08-07T13:41:41.544Z,28.20
2022-08-07T13:44:12.887Z,28.10
2022-08-07T13:46:49.627Z,28.10
2022-08-07T13:50:36.631Z,28.20
2022-08-07T13:52:30.567Z,28.00
2022-08-07T13:54:58.423Z,28.00
2022-08-07T13:57:38.192Z,28.00
2022-08-07T14:00:26.439Z,28.10
2022-08-07T14:02:58.721Z,28.20
2022-08-07T14:05:37.299Z,28.10
2022-08-07T14:08:08.926Z,28.10
2022-08-07T14:10:41.699Z,28.10
2022-08-07T14:13:16.227Z,28.00
2022-08-07T14:15:50.891Z,28.00
2022-08-07T14:18:28.768Z,28.10
2022-08-07T14:21:07.113Z,28.00
2022-08-07T14:24:01.272Z,28.00
2022-08-07T14:26:32.128Z,28.10
2022-08-07T14:29:10.538Z,28.20
2022-08-07T14:31:57.940Z,28.30
2022-08-07T14:34:30.614Z,28.20
2022-08-07T14:37:03.422Z,28.30
2022-08-07T14:40:17.709Z,28.40
2022-08-07T14:45:21.340Z,28.10
2022-08-07T14:47:51.373Z,27.90
2022-08-07T14:50:31.607Z,27.90
2022-08-07T14:53:09.775Z,27.90
2022-08-07T14:58:34.714Z,27.90
2022-08-07T15:01:21.727Z,27.80
2022-08-07T15:03:53.275Z,27.80
2022-08-07T15:06:25.251Z,27.60
2022-08-07T15:08:56.245Z,27.60
2022-08-07T15:11:53.805Z,27.60
2022-08-07T15:14:21.076Z,27.60
2022-08-07T15:16:55.734Z,27.50
2022-08-07T15:20:30.386Z,27.40
2022-08-07T15:22:31.071Z,27.50
2022-08-07T15:25:18.197Z,27.50
2022-08-07T15:28:02.076Z,27.30
2022-08-07T15:31:04.840Z,27.30
2022-08-07T15:33:33.429Z,27.30
2022-08-07T15:36:05.135Z,27.30
2022-08-07T15:38:51.193Z,27.20
2022-08-07T15:42:46.368Z,27.20
2022-08-07T15:44:18.133Z,27.10
2022-08-07T15:46:52.614Z,27.10
2022-08-07T15:50:05.106Z,27.10
2022-08-07T15:52:21.558Z,27.10
2022-08-07T15:55:02.678Z,27.00
2022-08-07T15:57:39.749Z,26.90
2022-08-07T16:00:32.174Z,26.90
2022-08-07T16:03:05.453Z,26.90
2022-08-07T16:05:34.882Z,26.90
2022-08-07T16:08:33.326Z,26.80
2022-08-07T16:11:02.520Z,26.80
2022-08-07T16:13:58.884Z,26.90
2022-08-07T16:17:00.909Z,26.80
2022-08-07T16:19:59.024Z,26.60
2022-08-07T16:23:05.534Z,26.60
2022-08-07T16:25:52.644Z,26.60
2022-08-07T16:30:06.924Z,26.70
2022-08-07T16:31:57.728Z,26.60
2022-08-07T16:34:39.427Z,26.50
2022-08-07T16:38:02.960Z,26.40
2022-08-07T16:40:56.905Z,26.30
2022-08-07T16:44:03.701Z,26.10
2022-08-07T16:47:16.608Z,26.10
2022-08-07T16:50:39.165Z,26.10
2022-08-07T16:54:03.166Z,26.10
2022-08-07T16:56:37.545Z,26.10
2022-08-07T16:59:14.466Z,26.10
2022-08-07T17:02:02.846Z,26.10
2022-08-07T17:04:51.175Z,26.00
2022-08-07T17:07:55.776Z,26.00
2022-08-07T17:10:35.691Z,25.90
2022-08-07T17:13:41.274Z,25.70
2022-08-07T17:16:24.877Z,25.70
2022-08-07T17:19:04.564Z,25.60
2022-08-07T17:21:50.781Z,25.50
2022-08-07T17:24:41.466Z,25.50
2022-08-07T17:27:19.874Z,25.50
2022-08-07T17:30:14.722Z,25.40
2022-08-07T17:34:09.558Z,25.40
2022-08-07T17:36:12.070Z,25.40
2022-08-07T17:38:55.918Z,25.30
2022-08-07T17:42:04.955Z,25.30
2022-08-07T17:44:45.445Z,25.20
2022-08-07T17:47:38.686Z,25.20
2022-08-07T17:50:18.989Z,25.20
2022-08-07T17:52:58.923Z,25.10
2022-08-07T17:55:55.826Z,25.10
2022-08-07T17:58:31.135Z,25.00
2022-08-07T18:01:03.568Z,25.00
2022-08-07T18:04:16.599Z,24.90
2022-08-07T18:07:12.849Z,24.90
2022-08-07T18:10:05.292Z,24.90
2022-08-07T18:12:42.806Z,24.80
2022-08-07T18:15:20.044Z,24.70
2022-08-07T18:18:47.072Z,24.70
2022-08-07T18:21:10.091Z,24.60
2022-08-07T18:23:58.822Z,24.60
2022-08-07T18:26:46.125Z,24.50
2022-08-07T18:30:05.607Z,24.40
2022-08-07T18:32:39.148Z,24.40
2022-08-07T18:35:21.577Z,24.30
2022-08-07T18:38:59.263Z,24.20
2022-08-07T18:41:16.821Z,24.20
2022-08-07T18:43:58.430Z,24.20
2022-08-07T18:46:35.131Z,24.20
2022-08-07T18:50:32.680Z,24.20
2022-08-07T18:52:37.519Z,24.20
2022-08-07T18:55:40.596Z,24.30
2022-08-07T18:58:42.316Z,24.30
2022-08-07T19:02:34.639Z,24.40
2022-08-07T19:04:39.765Z,24.40
2022-08-07T19:07:34.915Z,24.40
2022-08-07T19:10:12.113Z,24.40
2022-08-07T19:13:11.570Z,24.40
2022-08-07T19:16:04.328Z,24.30
2022-08-07T19:18:55.624Z,24.30
2022-08-07T19:21:47.547Z,24.20
2022-08-07T19:24:30.388Z,24.10
2022-08-07T19:28:30.796Z,24.10
2022-08-07T19:31:04.299Z,24.00
2022-08-07T19:32:47.433Z,24.00
2022-08-07T19:35:26.682Z,23.90
2022-08-07T19:37:59.550Z,23.80
2022-08-07T19:40:34.721Z,23.80
2022-08-07T19:43:10.822Z,23.70
2022-08-07T19:46:07.611Z,23.70
2022-08-07T19:48:42.376Z,23.70
2022-08-07T19:51:19.961Z,23.70
2022-08-07T19:54:31.667Z,23.60
2022-08-07T19:57:51.466Z,23.50
2022-08-07T19:59:40.575Z,23.50
2022-08-07T20:02:19.073Z,23.50
2022-08-07T20:04:50.362Z,23.50
2022-08-07T20:07:46.418Z,23.40
2022-08-07T20:10:36.394Z,23.40
2022-08-07T20:13:23.526Z,23.40
2022-08-07T20:15:54.080Z,23.40
2022-08-07T20:18:32.779Z,23.30
2022-08-07T20:21:14.274Z,23.30
2022-08-07T20:23:53.834Z,23.30
2022-08-07T20:26:32.501Z,23.20
2022-08-07T20:29:46.872Z,23.20
2022-08-07T20:32:02.203Z,23.20
2022-08-07T20:34:51.239Z,23.10
2022-08-07T20:37:29.700Z,23.10
2022-08-07T20:40:33.250Z,22.90
2022-08-07T20:42:57.773Z,22.80
2022-08-07T20:46:24.399Z,22.70
2022-08-07T20:48:29.940Z,22.60
2022-08-07T20:51:01.357Z,22.50
2022-08-07T20:54:04.015Z,22.50
2022-08-07T20:56:30.153Z,22.40
2022-08-07T20:59:05.775Z,22.30
2022-08-07T21:01:36.394Z,22.30
2022-08-07T21:04:22.370Z,22.20
2022-08-07T21:06:55.178Z,22.20
2022-08-07T21:09:51.840Z,22.20
2022-08-07T21:12:29.169Z,22.20
2022-08-07T21:15:03.796Z,22.20
2022-08-07T21:18:02.309Z,22.30
2022-08-07T21:20:29.550Z,22.30
2022-08-07T21:23:07.753Z,22.20
2022-08-07T21:25:56.852Z,22.30
2022-08-07T21:28:49.808Z,22.30
2022-08-07T21:31:49.845Z,22.30
2022-08-07T21:34:22.408Z,22.30
2022-08-07T21:37:04.667Z,22.30
2022-08-07T21:39:47.977Z,22.20
2022-08-07T21:42:46.689Z,22.20
2022-08-07T21:46:04.844Z,22.20
2022-08-07T21:48:29.225Z,22.10
2022-08-07T21:51:19.525Z,22.10
2022-08-07T21:53:54.226Z,22.10
2022-08-07T21:56:40.270Z,22.10
2022-08-07T21:59:31.072Z,22.00
2022-08-07T22:02:24.478Z,22.00
2022-08-07T22:04:56.275Z,22.00
2022-08-07T22:07:31.695Z,21.90
2022-08-07T22:10:20.218Z,22.00
2022-08-07T22:12:54.100Z,21.90
2022-08-07T22:16:41.850Z,21.80
2022-08-07T22:18:23.027Z,21.80
2022-08-07T22:20:55.561Z,21.80
2022-08-07T22:23:31.131Z,21.70
2022-08-07T22:26:06.159Z,21.70
2022-08-07T22:28:48.589Z,21.60
2022-08-07T22:31:45.684Z,21.50
2022-08-07T22:34:29.159Z,21.50
2022-08-07T22:37:09.322Z,21.50
2022-08-07T22:39:52.403Z,21.40
2022-08-07T22:42:25.615Z,21.40
2022-08-07T22:44:59.594Z,21.50
2022-08-07T22:47:52.293Z,21.50
2022-08-07T22:50:46.554Z,21.50
2022-08-07T22:54:07.982Z,21.50
2022-08-07T22:56:34.930Z,21.50
2022-08-07T22:59:34.234Z,21.40
2022-08-07T23:02:15.890Z,21.40
2022-08-07T23:06:06.948Z,21.50
2022-08-07T23:07:58.962Z,21.40
2022-08-07T23:10:42.123Z,21.40
2022-08-07T23:13:28.992Z,21.30
2022-08-07T23:16:08.824Z,21.30
2022-08-07T23:19:16.399Z,21.30
2022-08-07T23:21:57.346Z,21.40
2022-08-07T23:24:45.510Z,21.30
2022-08-07T23:28:22.073Z,21.30
2022-08-07T23:30:42.562Z,21.30
2022-08-07T23:34:33.553Z,21.20
2022-08-07T23:36:37.530Z,21.20
2022-08-07T23:39:13.604Z,21.20
2022-08-07T23:42:04.360Z,21.20
2022-08-07T23:45:15.387Z,21.10
2022-08-07T23:48:07.410Z,21.10
2022-08-07T23:50:45.923Z,21.00
2022-08-07T23:53:49.677Z,21.00
2022-08-07T23:56:27.335Z,20.80
